LFLP

Annecy-Haute-Savoie-Mont Blanc Airport

Airport
ICAO code
LFLP
IATA Code
NCY
Summary
ICAO Region
EUR
ICAO Territory
Location

, Rhone-Alpes

Serving
Annecy
Elevation
1521 ft
Coordinates
45° 55' 45" N , 6° 5' 56" E
Metar
Observation
LFLP 030200Z AUTO 00000KT 6000 NSC 01/M00 Q1013
Station
ANNECY/MEYTHET
Date/Time
2022-12-03 02:00:00
Wind direction
Wind speed
00 kts
Lowest cloud amount
nil significant cloud
Temperature
1°C
Dew point
-0°C
Humidity
93%
QNH
1013 hPa
Weather condition
n/a

Runways

Designator Length Width Surface Rops
4/22 1630 30 ASP Yes/Yes

Airport map

Aerial View

SKYbrary Partners:

Safety knowledge contributed by: